sensor_id;sensor_type;location;lat;lon;timestamp;temperature;humidity
25280;DHT22;13225;47.804;12.116;2023-10-19T00:00:13;7.60;99.90
25280;DHT22;13225;47.804;12.116;2023-10-19T00:02:49;7.60;99.90
25280;DHT22;13225;47.804;12.116;2023-10-19T00:05:17;7.60;99.90
25280;DHT22;13225;47.804;12.116;2023-10-19T00:07:43;7.60;99.90
25280;DHT22;13225;47.804;12.116;2023-10-19T00:10:09;7.60;99.90
25280;DHT22;13225;47.804;12.116;2023-10-19T00:12:36;7.60;99.90
25280;DHT22;13225;47.804;12.116;2023-10-19T00:15:02;7.60;99.90
25280;DHT22;13225;47.804;12.116;2023-10-19T00:17:29;7.50;99.90
25280;DHT22;13225;47.804;12.116;2023-10-19T00:19:57;7.50;99.90
25280;DHT22;13225;47.804;12.116;2023-10-19T00:22:25;7.50;99.90
25280;DHT22;13225;47.804;12.116;2023-10-19T00:24:51;7.50;99.90
25280;DHT22;13225;47.804;12.116;2023-10-19T00:27:16;7.50;99.90
25280;DHT22;13225;47.804;12.116;2023-10-19T00:29:44;7.50;99.90
25280;DHT22;13225;47.804;12.116;2023-10-19T00:32:20;7.50;99.90
25280;DHT22;13225;47.804;12.116;2023-10-19T00:34:50;7.50;99.90
25280;DHT22;13225;47.804;12.116;2023-10-19T00:37:17;7.40;99.90
25280;DHT22;13225;47.804;12.116;2023-10-19T00:39:46;7.40;99.90
25280;DHT22;13225;47.804;12.116;2023-10-19T00:42:21;7.30;99.90
25280;DHT22;13225;47.804;12.116;2023-10-19T00:44:50;7.20;99.90
25280;DHT22;13225;47.804;12.116;2023-10-19T00:47:17;7.30;99.90
25280;DHT22;13225;47.804;12.116;2023-10-19T00:49:47;7.20;99.90
25280;DHT22;13225;47.804;12.116;2023-10-19T00:52:14;7.30;99.90
25280;DHT22;13225;47.804;12.116;2023-10-19T00:54:50;7.30;99.90
25280;DHT22;13225;47.804;12.116;2023-10-19T00:57:17;7.20;99.90
25280;DHT22;13225;47.804;12.116;2023-10-19T00:59:47;7.10;99.90
25280;DHT22;13225;47.804;12.116;2023-10-19T01:02:20;7.00;99.90
25280;DHT22;13225;47.804;12.116;2023-10-19T01:04:51;7.00;99.90
25280;DHT22;13225;47.804;12.116;2023-10-19T01:07:24;7.00;99.90
25280;DHT22;13225;47.804;12.116;2023-10-19T01:09:54;7.00;99.90
25280;DHT22;13225;47.804;12.116;2023-10-19T01:12:25;7.00;99.90
25280;DHT22;13225;47.804;12.116;2023-10-19T01:15:19;7.00;99.90
25280;DHT22;13225;47.804;12.116;2023-10-19T01:17:55;7.00;99.90
25280;DHT22;13225;47.804;12.116;2023-10-19T01:20:31;7.00;99.90
25280;DHT22;13225;47.804;12.116;2023-10-19T01:22:58;7.00;99.90
25280;DHT22;13225;47.804;12.116;2023-10-19T01:28:10;6.90;99.90
25280;DHT22;13225;47.804;12.116;2023-10-19T01:30:36;6.80;99.90
25280;DHT22;13225;47.804;12.116;2023-10-19T01:33:05;6.90;99.90
25280;DHT22;13225;47.804;12.116;2023-10-19T01:35:38;6.80;99.90
25280;DHT22;13225;47.804;12.116;2023-10-19T01:38:23;6.90;99.90
25280;DHT22;13225;47.804;12.116;2023-10-19T01:40:49;6.90;99.90
25280;DHT22;13225;47.804;12.116;2023-10-19T01:43:16;6.80;99.90
25280;DHT22;13225;47.804;12.116;2023-10-19T01:45:51;6.80;99.90
25280;DHT22;13225;47.804;12.116;2023-10-19T01:48:20;6.80;99.90
25280;DHT22;13225;47.804;12.116;2023-10-19T01:50:48;6.80;99.90
25280;DHT22;13225;47.804;12.116;2023-10-19T01:53:16;6.80;99.90
25280;DHT22;13225;47.804;12.116;2023-10-19T01:55:44;6.80;99.90
25280;DHT22;13225;47.804;12.116;2023-10-19T01:58:12;6.80;99.90
25280;DHT22;13225;47.804;12.116;2023-10-19T02:00:40;6.70;99.90
25280;DHT22;13225;47.804;12.116;2023-10-19T02:03:08;6.80;99.90
25280;DHT22;13225;47.804;12.116;2023-10-19T02:05:34;6.80;99.90
25280;DHT22;13225;47.804;12.116;2023-10-19T02:08:07;6.80;99.90
25280;DHT22;13225;47.804;12.116;2023-10-19T02:10:36;6.90;99.90
25280;DHT22;13225;47.804;12.116;2023-10-19T02:13:08;7.00;99.90
25280;DHT22;13225;47.804;12.116;2023-10-19T02:15:39;7.00;99.90
25280;DHT22;13225;47.804;12.116;2023-10-19T02:18:05;7.00;99.90
25280;DHT22;13225;47.804;12.116;2023-10-19T02:20:30;7.00;99.90
25280;DHT22;13225;47.804;12.116;2023-10-19T02:22:57;7.00;99.90
25280;DHT22;13225;47.804;12.116;2023-10-19T02:25:24;7.10;99.90
25280;DHT22;13225;47.804;12.116;2023-10-19T02:27:56;7.10;99.90
25280;DHT22;13225;47.804;12.116;2023-10-19T02:30:22;7.10;99.90
25280;DHT22;13225;47.804;12.116;2023-10-19T02:32:50;7.20;99.90
25280;DHT22;13225;47.804;12.116;2023-10-19T02:35:16;7.20;99.90
25280;DHT22;13225;47.804;12.116;2023-10-19T02:37:41;7.30;99.90
25280;DHT22;13225;47.804;12.116;2023-10-19T02:40:07;7.30;99.90
25280;DHT22;13225;47.804;12.116;2023-10-19T02:42:40;7.40;99.90
25280;DHT22;13225;47.804;12.116;2023-10-19T02:45:07;7.40;99.90
25280;DHT22;13225;47.804;12.116;2023-10-19T02:47:33;7.40;99.90
25280;DHT22;13225;47.804;12.116;2023-10-19T02:49:58;7.50;99.90
25280;DHT22;13225;47.804;12.116;2023-10-19T02:52:24;7.50;99.90
25280;DHT22;13225;47.804;12.116;2023-10-19T02:54:49;7.50;99.90
25280;DHT22;13225;47.804;12.116;2023-10-19T02:57:15;7.50;99.90
25280;DHT22;13225;47.804;12.116;2023-10-19T02:59:41;7.50;99.90
25280;DHT22;13225;47.804;12.116;2023-10-19T03:02:06;7.50;99.90
25280;DHT22;13225;47.804;12.116;2023-10-19T03:04:38;7.50;99.90
25280;DHT22;13225;47.804;12.116;2023-10-19T03:07:04;7.60;99.90
25280;DHT22;13225;47.804;12.116;2023-10-19T03:09:30;7.60;99.90
25280;DHT22;13225;47.804;12.116;2023-10-19T03:12:01;7.60;99.90
25280;DHT22;13225;47.804;12.116;2023-10-19T03:14:33;7.50;99.90
25280;DHT22;13225;47.804;12.116;2023-10-19T03:16:59;7.50;99.90
25280;DHT22;13225;47.804;12.116;2023-10-19T03:19:26;7.40;99.90
25280;DHT22;13225;47.804;12.116;2023-10-19T03:21:52;7.40;99.90
25280;DHT22;13225;47.804;12.116;2023-10-19T03:24:19;7.50;99.90
25280;DHT22;13225;47.804;12.116;2023-10-19T03:27:08;7.50;99.90
25280;DHT22;13225;47.804;12.116;2023-10-19T03:29:50;7.50;99.90
25280;DHT22;13225;47.804;12.116;2023-10-19T03:32:21;7.50;99.90
25280;DHT22;13225;47.804;12.116;2023-10-19T03:34:54;7.50;99.90
25280;DHT22;13225;47.804;12.116;2023-10-19T03:37:26;7.50;99.90
25280;DHT22;13225;47.804;12.116;2023-10-19T03:39:54;7.50;99.90
25280;DHT22;13225;47.804;12.116;2023-10-19T03:42:24;7.60;99.90
25280;DHT22;13225;47.804;12.116;2023-10-19T03:44:57;7.60;99.90
25280;DHT22;13225;47.804;12.116;2023-10-19T03:47:25;7.60;99.90
25280;DHT22;13225;47.804;12.116;2023-10-19T03:50:03;7.60;99.90
25280;DHT22;13225;47.804;12.116;2023-10-19T03:52:35;7.60;99.90
25280;DHT22;13225;47.804;12.116;2023-10-19T03:55:03;7.60;99.90
25280;DHT22;13225;47.804;12.116;2023-10-19T03:57:36;7.70;99.90
25280;DHT22;13225;47.804;12.116;2023-10-19T04:00:07;7.70;99.90
25280;DHT22;13225;47.804;12.116;2023-10-19T04:02:36;7.70;99.90
25280;DHT22;13225;47.804;12.116;2023-10-19T04:05:04;7.70;99.90
25280;DHT22;13225;47.804;12.116;2023-10-19T04:07:30;7.70;99.90
25280;DHT22;13225;47.804;12.116;2023-10-19T04:09:58;7.80;99.90
25280;DHT22;13225;47.804;12.116;2023-10-19T04:12:37;7.70;99.90
25280;DHT22;13225;47.804;12.116;2023-10-19T04:15:07;7.80;99.90
25280;DHT22;13225;47.804;12.116;2023-10-19T04:17:44;7.80;99.90
25280;DHT22;13225;47.804;12.116;2023-10-19T04:20:11;7.90;99.90
25280;DHT22;13225;47.804;12.116;2023-10-19T04:22:39;7.90;99.90
25280;DHT22;13225;47.804;12.116;2023-10-19T04:25:05;7.90;99.90
25280;DHT22;13225;47.804;12.116;2023-10-19T04:27:31;7.90;99.90
25280;DHT22;13225;47.804;12.116;2023-10-19T04:30:01;8.00;99.90
25280;DHT22;13225;47.804;12.116;2023-10-19T04:32:27;8.00;99.90
25280;DHT22;13225;47.804;12.116;2023-10-19T04:34:53;8.00;99.90
25280;DHT22;13225;47.804;12.116;2023-10-19T04:37:19;8.00;99.90
25280;DHT22;13225;47.804;12.116;2023-10-19T04:39:45;8.10;99.90
25280;DHT22;13225;47.804;12.116;2023-10-19T04:42:11;8.10;99.90
25280;DHT22;13225;47.804;12.116;2023-10-19T04:44:37;8.10;99.90
25280;DHT22;13225;47.804;12.116;2023-10-19T04:47:03;8.10;99.90
25280;DHT22;13225;47.804;12.116;2023-10-19T04:49:28;8.20;99.90
25280;DHT22;13225;47.804;12.116;2023-10-19T04:51:54;8.20;99.90
25280;DHT22;13225;47.804;12.116;2023-10-19T04:54:19;8.20;99.90
25280;DHT22;13225;47.804;12.116;2023-10-19T04:56:45;8.20;99.90
25280;DHT22;13225;47.804;12.116;2023-10-19T04:59:11;8.20;99.90
25280;DHT22;13225;47.804;12.116;2023-10-19T05:01:36;8.20;99.90
25280;DHT22;13225;47.804;12.116;2023-10-19T05:04:02;8.20;99.90
25280;DHT22;13225;47.804;12.116;2023-10-19T05:06:28;8.20;99.90
25280;DHT22;13225;47.804;12.116;2023-10-19T05:08:54;8.10;99.90
25280;DHT22;13225;47.804;12.116;2023-10-19T05:11:19;8.20;99.90
25280;DHT22;13225;47.804;12.116;2023-10-19T05:13:45;8.20;99.90
25280;DHT22;13225;47.804;12.116;2023-10-19T05:16:10;8.20;99.90
25280;DHT22;13225;47.804;12.116;2023-10-19T05:18:36;8.20;99.90
25280;DHT22;13225;47.804;12.116;2023-10-19T05:21:01;8.20;99.90
25280;DHT22;13225;47.804;12.116;2023-10-19T05:23:28;8.20;99.90
25280;DHT22;13225;47.804;12.116;2023-10-19T05:26:00;8.20;99.90
25280;DHT22;13225;47.804;12.116;2023-10-19T05:28:27;8.30;99.90
25280;DHT22;13225;47.804;12.116;2023-10-19T05:30:53;8.30;99.90
25280;DHT22;13225;47.804;12.116;2023-10-19T05:33:19;8.30;99.90
25280;DHT22;13225;47.804;12.116;2023-10-19T05:35:47;8.40;99.90
25280;DHT22;13225;47.804;12.116;2023-10-19T05:38:13;8.40;99.90
25280;DHT22;13225;47.804;12.116;2023-10-19T05:40:38;8.40;99.90
25280;DHT22;13225;47.804;12.116;2023-10-19T05:43:04;8.30;99.90
25280;DHT22;13225;47.804;12.116;2023-10-19T05:45:30;8.30;99.90
25280;DHT22;13225;47.804;12.116;2023-10-19T05:47:57;8.30;99.90
25280;DHT22;13225;47.804;12.116;2023-10-19T05:50:24;8.30;99.90
25280;DHT22;13225;47.804;12.116;2023-10-19T05:52:50;8.30;99.90
25280;DHT22;13225;47.804;12.116;2023-10-19T05:55:17;8.30;99.90
25280;DHT22;13225;47.804;12.116;2023-10-19T05:57:43;8.30;99.90
25280;DHT22;13225;47.804;12.116;2023-10-19T06:00:10;8.40;99.90
25280;DHT22;13225;47.804;12.116;2023-10-19T06:02:40;8.40;99.90
25280;DHT22;13225;47.804;12.116;2023-10-19T06:05:06;8.40;99.90
25280;DHT22;13225;47.804;12.116;2023-10-19T06:07:32;8.40;99.90
25280;DHT22;13225;47.804;12.116;2023-10-19T06:09:58;8.40;99.90
25280;DHT22;13225;47.804;12.116;2023-10-19T06:12:26;8.50;99.90
25280;DHT22;13225;47.804;12.116;2023-10-19T06:14:51;8.60;99.90
25280;DHT22;13225;47.804;12.116;2023-10-19T06:17:17;8.60;99.90
25280;DHT22;13225;47.804;12.116;2023-10-19T06:19:44;8.60;99.90
25280;DHT22;13225;47.804;12.116;2023-10-19T06:22:11;8.60;99.90
25280;DHT22;13225;47.804;12.116;2023-10-19T06:24:37;8.60;99.90
25280;DHT22;13225;47.804;12.116;2023-10-19T06:27:03;8.70;99.90
25280;DHT22;13225;47.804;12.116;2023-10-19T06:29:29;8.80;99.90
25280;DHT22;13225;47.804;12.116;2023-10-19T06:31:55;8.80;99.90
25280;DHT22;13225;47.804;12.116;2023-10-19T06:34:20;8.90;99.90
25280;DHT22;13225;47.804;12.116;2023-10-19T06:36:46;8.90;99.90
25280;DHT22;13225;47.804;12.116;2023-10-19T06:39:11;9.00;99.90
25280;DHT22;13225;47.804;12.116;2023-10-19T06:41:39;9.00;99.90
25280;DHT22;13225;47.804;12.116;2023-10-19T06:44:05;9.00;99.90
25280;DHT22;13225;47.804;12.116;2023-10-19T06:46:31;9.00;99.90
25280;DHT22;13225;47.804;12.116;2023-10-19T06:48:56;9.00;99.90
25280;DHT22;13225;47.804;12.116;2023-10-19T06:51:26;9.10;99.90
25280;DHT22;13225;47.804;12.116;2023-10-19T06:53:54;9.20;99.90
25280;DHT22;13225;47.804;12.116;2023-10-19T06:56:21;9.20;99.90
25280;DHT22;13225;47.804;12.116;2023-10-19T06:58:46;9.30;99.90
25280;DHT22;13225;47.804;12.116;2023-10-19T07:01:13;9.30;99.90
25280;DHT22;13225;47.804;12.116;2023-10-19T07:03:42;9.30;99.90
25280;DHT22;13225;47.804;12.116;2023-10-19T07:06:07;9.30;99.90
25280;DHT22;13225;47.804;12.116;2023-10-19T07:08:37;9.30;99.90
25280;DHT22;13225;47.804;12.116;2023-10-19T07:11:02;9.40;99.90
25280;DHT22;13225;47.804;12.116;2023-10-19T07:13:29;9.40;99.90
25280;DHT22;13225;47.804;12.116;2023-10-19T07:15:58;9.40;99.90
25280;DHT22;13225;47.804;12.116;2023-10-19T07:18:24;9.60;99.90
25280;DHT22;13225;47.804;12.116;2023-10-19T07:20:49;9.80;99.90
25280;DHT22;13225;47.804;12.116;2023-10-19T07:23:15;9.70;99.90
25280;DHT22;13225;47.804;12.116;2023-10-19T07:25:48;9.70;99.90
25280;DHT22;13225;47.804;12.116;2023-10-19T07:28:18;9.80;99.90
25280;DHT22;13225;47.804;12.116;2023-10-19T07:30:45;9.70;99.90
25280;DHT22;13225;47.804;12.116;2023-10-19T07:33:15;9.80;99.90
25280;DHT22;13225;47.804;12.116;2023-10-19T07:35:44;10.00;99.90
25280;DHT22;13225;47.804;12.116;2023-10-19T07:38:13;10.20;99.90
25280;DHT22;13225;47.804;12.116;2023-10-19T07:40:39;10.40;99.90
25280;DHT22;13225;47.804;12.116;2023-10-19T07:43:05;10.60;99.90
25280;DHT22;13225;47.804;12.116;2023-10-19T07:45:31;10.70;99.90
25280;DHT22;13225;47.804;12.116;2023-10-19T07:47:57;10.70;99.90
25280;DHT22;13225;47.804;12.116;2023-10-19T07:50:23;10.90;99.90
25280;DHT22;13225;47.804;12.116;2023-10-19T07:52:53;11.10;99.90
25280;DHT22;13225;47.804;12.116;2023-10-19T07:55:21;11.20;99.90
25280;DHT22;13225;47.804;12.116;2023-10-19T07:57:50;11.30;99.90
25280;DHT22;13225;47.804;12.116;2023-10-19T08:00:17;11.30;99.90
25280;DHT22;13225;47.804;12.116;2023-10-19T08:02:46;11.40;99.90
25280;DHT22;13225;47.804;12.116;2023-10-19T08:05:15;11.60;99.90
25280;DHT22;13225;47.804;12.116;2023-10-19T08:07:43;11.60;99.90
25280;DHT22;13225;47.804;12.116;2023-10-19T08:10:10;11.70;99.90
25280;DHT22;13225;47.804;12.116;2023-10-19T08:12:40;11.80;99.90
25280;DHT22;13225;47.804;12.116;2023-10-19T08:15:09;11.60;99.90
25280;DHT22;13225;47.804;12.116;2023-10-19T08:17:40;11.80;99.90
25280;DHT22;13225;47.804;12.116;2023-10-19T08:20:08;11.80;99.90
25280;DHT22;13225;47.804;12.116;2023-10-19T08:22:38;12.10;99.90
25280;DHT22;13225;47.804;12.116;2023-10-19T08:25:04;12.20;99.90
25280;DHT22;13225;47.804;12.116;2023-10-19T08:27:38;12.30;99.90
25280;DHT22;13225;47.804;12.116;2023-10-19T08:30:04;12.30;99.90
25280;DHT22;13225;47.804;12.116;2023-10-19T08:32:29;12.40;99.90
25280;DHT22;13225;47.804;12.116;2023-10-19T08:34:58;12.40;99.90
25280;DHT22;13225;47.804;12.116;2023-10-19T08:37:24;12.60;99.90
25280;DHT22;13225;47.804;12.116;2023-10-19T08:39:51;12.70;99.90
25280;DHT22;13225;47.804;12.116;2023-10-19T08:42:16;12.80;99.90
25280;DHT22;13225;47.804;12.116;2023-10-19T08:44:42;12.90;99.90
25280;DHT22;13225;47.804;12.116;2023-10-19T08:47:08;13.00;99.90
25280;DHT22;13225;47.804;12.116;2023-10-19T08:49:34;13.10;99.90
25280;DHT22;13225;47.804;12.116;2023-10-19T08:52:00;13.10;99.90
25280;DHT22;13225;47.804;12.116;2023-10-19T08:54:30;13.20;99.90
25280;DHT22;13225;47.804;12.116;2023-10-19T08:56:56;13.30;99.90
25280;DHT22;13225;47.804;12.116;2023-10-19T08:59:21;13.30;99.90
25280;DHT22;13225;47.804;12.116;2023-10-19T09:01:48;13.30;99.90
25280;DHT22;13225;47.804;12.116;2023-10-19T09:04:14;13.40;99.90
25280;DHT22;13225;47.804;12.116;2023-10-19T09:06:42;13.40;99.90
25280;DHT22;13225;47.804;12.116;2023-10-19T09:09:11;13.30;99.90
25280;DHT22;13225;47.804;12.116;2023-10-19T09:11:45;13.20;99.90
25280;DHT22;13225;47.804;12.116;2023-10-19T09:14:15;13.20;99.90
25280;DHT22;13225;47.804;12.116;2023-10-19T09:16:56;13.20;99.90
25280;DHT22;13225;47.804;12.116;2023-10-19T09:19:42;13.20;99.90
25280;DHT22;13225;47.804;12.116;2023-10-19T09:22:08;13.20;99.90
25280;DHT22;13225;47.804;12.116;2023-10-19T09:24:42;13.20;99.90
25280;DHT22;13225;47.804;12.116;2023-10-19T09:27:08;13.20;99.90
25280;DHT22;13225;47.804;12.116;2023-10-19T09:29:34;13.30;99.90
25280;DHT22;13225;47.804;12.116;2023-10-19T09:32:00;13.30;99.90
25280;DHT22;13225;47.804;12.116;2023-10-19T09:34:30;13.30;99.90
25280;DHT22;13225;47.804;12.116;2023-10-19T09:36:59;13.40;99.90
25280;DHT22;13225;47.804;12.116;2023-10-19T09:39:29;13.40;99.90
25280;DHT22;13225;47.804;12.116;2023-10-19T09:42:05;13.50;99.90
25280;DHT22;13225;47.804;12.116;2023-10-19T09:44:39;13.50;99.90
25280;DHT22;13225;47.804;12.116;2023-10-19T09:47:10;13.80;99.90
25280;DHT22;13225;47.804;12.116;2023-10-19T09:49:41;14.00;99.90
25280;DHT22;13225;47.804;12.116;2023-10-19T09:52:08;14.10;99.90
25280;DHT22;13225;47.804;12.116;2023-10-19T09:57:28;14.80;99.90
25280;DHT22;13225;47.804;12.116;2023-10-19T10:00:03;15.20;99.90
25280;DHT22;13225;47.804;12.116;2023-10-19T10:02:43;15.50;99.90
25280;DHT22;13225;47.804;12.116;2023-10-19T10:10:51;15.90;99.90
25280;DHT22;13225;47.804;12.116;2023-10-19T10:15:58;16.10;99.90
25280;DHT22;13225;47.804;12.116;2023-10-19T10:18:27;16.20;99.90
25280;DHT22;13225;47.804;12.116;2023-10-19T10:21:07;16.20;99.90
25280;DHT22;13225;47.804;12.116;2023-10-19T10:23:52;16.60;99.90
25280;DHT22;13225;47.804;12.116;2023-10-19T10:26:21;16.80;99.90
25280;DHT22;13225;47.804;12.116;2023-10-19T10:29:13;17.10;99.90
25280;DHT22;13225;47.804;12.116;2023-10-19T10:31:47;17.20;99.90
25280;DHT22;13225;47.804;12.116;2023-10-19T10:37:08;17.40;99.90
25280;DHT22;13225;47.804;12.116;2023-10-19T10:39:35;17.60;99.90
25280;DHT22;13225;47.804;12.116;2023-10-19T10:42:05;17.40;99.90
25280;DHT22;13225;47.804;12.116;2023-10-19T10:47:18;17.90;99.90
25280;DHT22;13225;47.804;12.116;2023-10-19T10:52:29;18.20;99.90
25280;DHT22;13225;47.804;12.116;2023-10-19T10:55:00;18.00;99.90
25280;DHT22;13225;47.804;12.116;2023-10-19T10:57:32;17.70;99.90
25280;DHT22;13225;47.804;12.116;2023-10-19T11:00:16;17.60;99.90
25280;DHT22;13225;47.804;12.116;2023-10-19T11:02:43;17.70;99.90
25280;DHT22;13225;47.804;12.116;2023-10-19T11:05:15;17.60;99.90
25280;DHT22;13225;47.804;12.116;2023-10-19T11:08:02;17.80;99.90
25280;DHT22;13225;47.804;12.116;2023-10-19T11:10:29;17.80;99.90
25280;DHT22;13225;47.804;12.116;2023-10-19T11:15:27;18.00;99.90
25280;DHT22;13225;47.804;12.116;2023-10-19T11:17:53;18.00;99.90
25280;DHT22;13225;47.804;12.116;2023-10-19T11:20:23;17.80;99.90
25280;DHT22;13225;47.804;12.116;2023-10-19T11:22:51;17.80;99.90
25280;DHT22;13225;47.804;12.116;2023-10-19T11:25:25;17.70;99.90
25280;DHT22;13225;47.804;12.116;2023-10-19T11:27:54;17.80;99.90
25280;DHT22;13225;47.804;12.116;2023-10-19T11:30:37;17.90;99.90
25280;DHT22;13225;47.804;12.116;2023-10-19T11:33:03;18.10;99.90
25280;DHT22;13225;47.804;12.116;2023-10-19T11:35:30;18.20;99.90
25280;DHT22;13225;47.804;12.116;2023-10-19T11:38:00;18.40;99.90
25280;DHT22;13225;47.804;12.116;2023-10-19T11:40:27;18.50;99.90
25280;DHT22;13225;47.804;12.116;2023-10-19T11:42:54;18.70;99.90
25280;DHT22;13225;47.804;12.116;2023-10-19T11:45:24;18.70;99.90
25280;DHT22;13225;47.804;12.116;2023-10-19T11:47:50;18.80;99.90
25280;DHT22;13225;47.804;12.116;2023-10-19T11:50:16;18.80;99.90
25280;DHT22;13225;47.804;12.116;2023-10-19T11:52:44;18.70;99.90
25280;DHT22;13225;47.804;12.116;2023-10-19T11:55:11;18.50;99.90
25280;DHT22;13225;47.804;12.116;2023-10-19T11:57:39;18.50;99.90
25280;DHT22;13225;47.804;12.116;2023-10-19T12:00:06;18.40;99.90
25280;DHT22;13225;47.804;12.116;2023-10-19T12:02:35;19.10;99.90
25280;DHT22;13225;47.804;12.116;2023-10-19T12:05:03;19.90;99.90
25280;DHT22;13225;47.804;12.116;2023-10-19T12:07:29;20.50;99.90
25280;DHT22;13225;47.804;12.116;2023-10-19T12:09:55;21.20;99.90
25280;DHT22;13225;47.804;12.116;2023-10-19T12:12:21;22.20;99.90
25280;DHT22;13225;47.804;12.116;2023-10-19T12:14:47;22.40;99.90
25280;DHT22;13225;47.804;12.116;2023-10-19T12:17:13;22.30;99.90
25280;DHT22;13225;47.804;12.116;2023-10-19T12:19:38;22.30;99.90
25280;DHT22;13225;47.804;12.116;2023-10-19T12:22:04;22.00;99.90
25280;DHT22;13225;47.804;12.116;2023-10-19T12:24:29;21.80;99.90
25280;DHT22;13225;47.804;12.116;2023-10-19T12:26:56;21.20;99.90
25280;DHT22;13225;47.804;12.116;2023-10-19T12:29:21;20.80;99.90
25280;DHT22;13225;47.804;12.116;2023-10-19T12:31:47;20.30;99.90
25280;DHT22;13225;47.804;12.116;2023-10-19T12:34:13;20.40;99.90
25280;DHT22;13225;47.804;12.116;2023-10-19T12:36:39;20.40;99.90
25280;DHT22;13225;47.804;12.116;2023-10-19T12:39:06;20.70;99.90
25280;DHT22;13225;47.804;12.116;2023-10-19T12:41:32;21.20;99.90
25280;DHT22;13225;47.804;12.116;2023-10-19T12:43:59;21.60;99.90
25280;DHT22;13225;47.804;12.116;2023-10-19T12:46:27;22.90;99.90
25280;DHT22;13225;47.804;12.116;2023-10-19T12:48:55;23.30;99.90
25280;DHT22;13225;47.804;12.116;2023-10-19T12:51:22;23.50;99.90
25280;DHT22;13225;47.804;12.116;2023-10-19T12:53:51;24.10;99.90
25280;DHT22;13225;47.804;12.116;2023-10-19T12:56:18;24.20;99.90
25280;DHT22;13225;47.804;12.116;2023-10-19T12:58:44;24.00;99.90
25280;DHT22;13225;47.804;12.116;2023-10-19T13:01:09;24.40;99.90
25280;DHT22;13225;47.804;12.116;2023-10-19T13:03:42;24.50;99.90
25280;DHT22;13225;47.804;12.116;2023-10-19T13:06:11;23.90;99.90
25280;DHT22;13225;47.804;12.116;2023-10-19T13:08:37;23.80;99.90
25280;DHT22;13225;47.804;12.116;2023-10-19T13:11:09;23.80;99.90
25280;DHT22;13225;47.804;12.116;2023-10-19T13:13:35;24.50;99.90
25280;DHT22;13225;47.804;12.116;2023-10-19T13:16:05;24.90;99.90
25280;DHT22;13225;47.804;12.116;2023-10-19T13:18:35;24.60;99.90
25280;DHT22;13225;47.804;12.116;2023-10-19T13:21:01;24.30;99.90
25280;DHT22;13225;47.804;12.116;2023-10-19T13:23:37;24.10;99.90
25280;DHT22;13225;47.804;12.116;2023-10-19T13:26:02;24.00;99.90
25280;DHT22;13225;47.804;12.116;2023-10-19T13:28:40;23.00;99.90
25280;DHT22;13225;47.804;12.116;2023-10-19T13:31:07;22.40;99.90
25280;DHT22;13225;47.804;12.116;2023-10-19T13:33:34;22.00;99.90
25280;DHT22;13225;47.804;12.116;2023-10-19T13:36:00;21.80;99.90
25280;DHT22;13225;47.804;12.116;2023-10-19T13:38:26;21.90;99.90
25280;DHT22;13225;47.804;12.116;2023-10-19T13:40:51;21.70;99.90
25280;DHT22;13225;47.804;12.116;2023-10-19T13:43:18;21.60;99.90
25280;DHT22;13225;47.804;12.116;2023-10-19T13:45:46;21.50;99.90
25280;DHT22;13225;47.804;12.116;2023-10-19T13:48:13;21.60;99.90
25280;DHT22;13225;47.804;12.116;2023-10-19T13:50:46;21.60;99.90
25280;DHT22;13225;47.804;12.116;2023-10-19T13:53:14;21.30;99.90
25280;DHT22;13225;47.804;12.116;2023-10-19T13:55:41;21.10;99.90
25280;DHT22;13225;47.804;12.116;2023-10-19T13:58:06;20.90;99.90
25280;DHT22;13225;47.804;12.116;2023-10-19T14:00:32;20.70;99.90
25280;DHT22;13225;47.804;12.116;2023-10-19T14:03:07;20.60;99.90
25280;DHT22;13225;47.804;12.116;2023-10-19T14:05:51;20.40;99.90
25280;DHT22;13225;47.804;12.116;2023-10-19T14:08:19;20.20;99.90
25280;DHT22;13225;47.804;12.116;2023-10-19T14:10:46;20.20;99.90
25280;DHT22;13225;47.804;12.116;2023-10-19T14:13:12;20.10;99.90
25280;DHT22;13225;47.804;12.116;2023-10-19T14:15:38;20.00;99.90
25280;DHT22;13225;47.804;12.116;2023-10-19T14:18:04;19.80;99.90
25280;DHT22;13225;47.804;12.116;2023-10-19T14:20:30;19.70;99.90
25280;DHT22;13225;47.804;12.116;2023-10-19T14:22:57;19.50;99.90
25280;DHT22;13225;47.804;12.116;2023-10-19T14:25:23;19.40;99.90
25280;DHT22;13225;47.804;12.116;2023-10-19T14:27:51;19.30;99.90
25280;DHT22;13225;47.804;12.116;2023-10-19T14:30:22;19.10;99.90
25280;DHT22;13225;47.804;12.116;2023-10-19T14:32:48;19.00;99.90
25280;DHT22;13225;47.804;12.116;2023-10-19T14:35:15;18.90;99.90
25280;DHT22;13225;47.804;12.116;2023-10-19T14:37:43;18.70;99.90
25280;DHT22;13225;47.804;12.116;2023-10-19T14:40:11;18.60;99.90
25280;DHT22;13225;47.804;12.116;2023-10-19T14:42:38;18.40;99.90
25280;DHT22;13225;47.804;12.116;2023-10-19T14:45:06;18.30;99.90
25280;DHT22;13225;47.804;12.116;2023-10-19T14:47:35;18.20;99.90
25280;DHT22;13225;47.804;12.116;2023-10-19T14:50:01;18.10;99.90
25280;DHT22;13225;47.804;12.116;2023-10-19T14:52:27;18.10;99.90
25280;DHT22;13225;47.804;12.116;2023-10-19T14:54:52;18.10;99.90
25280;DHT22;13225;47.804;12.116;2023-10-19T14:57:18;18.00;99.90
25280;DHT22;13225;47.804;12.116;2023-10-19T14:59:44;18.00;99.90
25280;DHT22;13225;47.804;12.116;2023-10-19T15:02:09;18.00;99.90
25280;DHT22;13225;47.804;12.116;2023-10-19T15:04:38;18.00;99.90
25280;DHT22;13225;47.804;12.116;2023-10-19T15:07:04;18.00;99.90
25280;DHT22;13225;47.804;12.116;2023-10-19T15:09:30;17.90;99.90
25280;DHT22;13225;47.804;12.116;2023-10-19T15:11:56;17.90;99.90
25280;DHT22;13225;47.804;12.116;2023-10-19T15:14:22;17.90;99.90
25280;DHT22;13225;47.804;12.116;2023-10-19T15:16:48;17.80;99.90
25280;DHT22;13225;47.804;12.116;2023-10-19T15:19:13;17.80;99.90
25280;DHT22;13225;47.804;12.116;2023-10-19T15:21:43;17.60;99.90
25280;DHT22;13225;47.804;12.116;2023-10-19T15:24:10;17.60;99.90
25280;DHT22;13225;47.804;12.116;2023-10-19T15:26:38;17.50;99.90
25280;DHT22;13225;47.804;12.116;2023-10-19T15:29:04;17.30;99.90
25280;DHT22;13225;47.804;12.116;2023-10-19T15:31:30;17.30;99.90
25280;DHT22;13225;47.804;12.116;2023-10-19T15:33:56;17.20;99.90
25280;DHT22;13225;47.804;12.116;2023-10-19T15:36:22;17.10;99.90
25280;DHT22;13225;47.804;12.116;2023-10-19T15:38:48;17.10;99.90
25280;DHT22;13225;47.804;12.116;2023-10-19T15:41:15;17.00;99.90
25280;DHT22;13225;47.804;12.116;2023-10-19T15:43:41;17.00;99.90
25280;DHT22;13225;47.804;12.116;2023-10-19T15:46:07;16.80;99.90
25280;DHT22;13225;47.804;12.116;2023-10-19T15:48:38;16.80;99.90
25280;DHT22;13225;47.804;12.116;2023-10-19T15:51:05;16.80;99.90
25280;DHT22;13225;47.804;12.116;2023-10-19T15:53:33;16.80;99.90